Time;durP1;ratioP1;P1;durP2;ratioP2;P2;SDS_P1;SDS_P2;PMS_P1;PMS_P2;Temp;Humidity;BMP_temperature;BMP_pressure;BME280_temperature;BME280_humidity;BME280_pressure;Samples;Min_cycle;Max_cycle;Signal;HPM_P1;HPM_P2
2023/07/12 00:07:00;;;;;;;9.7;6.5;;;;;;;14.59;81.52;;;;;
2023/07/12 00:16:59;;;;;;;9.7;6.5;;;;;;;14.48;81.86;;;;;
2023/07/12 00:27:00;;;;;;;9.7;6.5;;;;;;;14.4;82.49;;;;;
2023/07/12 00:36:59;;;;;;;10.9;6.7;;;;;;;14.64;82.15;;;;;
2023/07/12 00:46:59;;;;;;;10.9;6.7;;;;;;;14.63;81.18;;;;;
2023/07/12 00:57:59;;;;;;;10.9;6.7;;;;;;;14.64;80.83;;;;;
2023/07/12 01:07:59;;;;;;;7.8;6.3;;;;;;;14.62;80.28;;;;;
2023/07/12 01:18:59;;;;;;;7.8;6.3;;;;;;;14.48;80.09;;;;;
2023/07/12 01:28:59;;;;;;;7.8;6.3;;;;;;;14.31;80.12;;;;;
2023/07/12 01:38:59;;;;;;;10.2;6.3;;;;;;;14.03;81.44;;;;;
2023/07/12 01:48:59;;;;;;;10.2;6.3;;;;;;;14;82.06;;;;;
2023/07/12 01:59:59;;;;;;;10.2;6.3;;;;;;;13.97;82.61;;;;;
2023/07/12 02:09:59;;;;;;;8.4;5.3;;;;;;;13.72;84.14;;;;;
2023/07/12 02:19:59;;;;;;;8.4;5.3;;;;;;;13.7;84.09;;;;;
2023/07/12 02:30:59;;;;;;;8.4;5.3;;;;;;;13.7;85.14;;;;;
2023/07/12 02:41:00;;;;;;;10.1;6.1;;;;;;;13.69;84.48;;;;;
2023/07/12 02:51:59;;;;;;;10.1;6.1;;;;;;;13.66;84.91;;;;;
2023/07/12 03:01:59;;;;;;;10.1;6.1;;;;;;;13.68;83.93;;;;;
2023/07/12 03:12:59;;;;;;;12.6;5.9;;;;;;;13.82;83.77;;;;;
2023/07/12 03:23:59;;;;;;;12.6;5.9;;;;;;;13.97;84.11;;;;;
2023/07/12 03:34:59;;;;;;;7.6;5.4;;;;;;;14.27;83.62;;;;;
2023/07/12 03:44:59;;;;;;;7.6;5.4;;;;;;;14.5;83.29;;;;;
2023/07/12 03:54:59;;;;;;;7.6;5.4;;;;;;;14.78;83.34;;;;;
2023/07/12 04:04:59;;;;;;;11.7;7.8;;;;;;;15.26;82.98;;;;;
2023/07/12 04:15:59;;;;;;;11.7;7.8;;;;;;;15.88;81.34;;;;;
2023/07/12 04:26:59;;;;;;;11.7;7.8;;;;;;;16.46;80.31;;;;;
2023/07/12 04:37:59;;;;;;;10.1;7;;;;;;;17.06;78.57;;;;;
2023/07/12 04:48:59;;;;;;;10.1;7;;;;;;;17.67;75.88;;;;;
2023/07/12 04:58:59;;;;;;;10.1;7;;;;;;;18.16;74.59;;;;;
2023/07/12 05:08:59;;;;;;;11.4;8.1;;;;;;;18.61;74.02;;;;;
2023/07/12 05:19:59;;;;;;;11.4;8.1;;;;;;;19.45;72.83;;;;;
2023/07/12 05:30:59;;;;;;;11.4;8.1;;;;;;;20.05;69.35;;;;;
2023/07/12 05:40:59;;;;;;;10.1;7;;;;;;;20.39;68.82;;;;;
2023/07/12 05:51:59;;;;;;;10.1;7;;;;;;;20.53;69.44;;;;;
2023/07/12 06:02:59;;;;;;;9.5;5.9;;;;;;;21.04;69.6;;;;;
2023/07/12 06:13:59;;;;;;;9.5;5.9;;;;;;;21.4;68.47;;;;;
2023/07/12 06:24:59;;;;;;;9.5;5.9;;;;;;;21.96;65.41;;;;;
2023/07/12 06:36:00;;;;;;;9.8;6.6;;;;;;;22.41;66.51;;;;;
2023/07/12 06:45:59;;;;;;;9.8;6.6;;;;;;;22.92;64.09;;;;;
2023/07/12 06:55:59;;;;;;;9.8;6.6;;;;;;;23.18;63.07;;;;;
2023/07/12 07:05:59;;;;;;;10.4;5.5;;;;;;;23.62;62.76;;;;;
2023/07/12 07:16:59;;;;;;;10.4;5.5;;;;;;;24.35;60.8;;;;;
2023/07/12 07:26:59;;;;;;;10.4;5.5;;;;;;;24.46;62.18;;;;;
2023/07/12 07:37:59;;;;;;;16.1;6.5;;;;;;;25.2;59.87;;;;;
2023/07/12 07:47:59;;;;;;;16.1;6.5;;;;;;;25.78;59.95;;;;;
2023/07/12 07:59:00;;;;;;;16.1;6.5;;;;;;;26.5;59.12;;;;;
2023/07/12 08:08:59;;;;;;;9;5.8;;;;;;;27.57;58.23;;;;;
2023/07/12 08:18:59;;;;;;;9;5.8;;;;;;;28.03;52.44;;;;;
2023/07/12 08:28:59;;;;;;;9;5.8;;;;;;;28.56;51.6;;;;;
2023/07/12 08:40:00;;;;;;;8.6;5.4;;;;;;;28.68;51.1;;;;;
2023/07/12 08:49:59;;;;;;;8.6;5.4;;;;;;;28.85;49.34;;;;;
2023/07/12 09:01:00;;;;;;;8.6;5.4;;;;;;;29.46;46.58;;;;;
2023/07/12 09:12:01;;;;;;;8;5.2;;;;;;;30.39;45.43;;;;;
2023/07/12 09:23:00;;;;;;;8;5.2;;;;;;;30.01;45.43;;;;;
2023/07/12 09:33:59;;;;;;;9.2;5.7;;;;;;;29.85;47.32;;;;;
2023/07/12 09:45:04;;;;;;;9.2;5.7;;;;;;;27.84;57.89;;;;;
2023/07/12 09:54:59;;;;;;;9.2;5.7;;;;;;;26;64.24;;;;;
2023/07/12 10:04:59;;;;;;;10.9;6.6;;;;;;;25.15;70.32;;;;;
2023/07/12 10:16:00;;;;;;;10.9;6.6;;;;;;;24.87;73.4;;;;;
2023/07/12 10:26:59;;;;;;;10.9;6.6;;;;;;;25.48;72.16;;;;;
2023/07/12 10:38:00;;;;;;;10.3;6.6;;;;;;;26.12;71.56;;;;;
2023/07/12 10:48:00;;;;;;;10.3;6.6;;;;;;;26.57;70.38;;;;;
2023/07/12 10:57:59;;;;;;;10.3;6.6;;;;;;;27.32;67.53;;;;;
2023/07/12 11:08:00;;;;;;;9.5;6.7;;;;;;;27.48;64.49;;;;;
2023/07/12 11:18:00;;;;;;;9.5;6.7;;;;;;;28.09;66.89;;;;;
2023/07/12 11:29:00;;;;;;;9.5;6.7;;;;;;;28.71;64.67;;;;;
2023/07/12 11:38:59;;;;;;;10.2;6.6;;;;;;;28.86;58.82;;;;;
2023/07/12 11:49:00;;;;;;;10.2;6.6;;;;;;;28.2;54.36;;;;;
2023/07/12 12:00:00;;;;;;;10.2;6.6;;;;;;;27.38;54.58;;;;;
2023/07/12 12:10:00;;;;;;;12;5.6;;;;;;;26.98;54.7;;;;;
2023/07/12 12:21:00;;;;;;;12;5.6;;;;;;;26.64;56.72;;;;;
2023/07/12 12:31:00;;;;;;;12;5.6;;;;;;;26.43;56.91;;;;;
2023/07/12 12:42:00;;;;;;;10.2;6.1;;;;;;;26.07;57.56;;;;;
2023/07/12 12:52:00;;;;;;;10.2;6.1;;;;;;;25.82;58.98;;;;;
2023/07/12 13:02:00;;;;;;;10.2;6.1;;;;;;;26.16;59.68;;;;;
2023/07/12 13:12:00;;;;;;;13.1;7.1;;;;;;;26.5;55.85;;;;;
2023/07/12 13:23:00;;;;;;;13.1;7.1;;;;;;;27.63;54.51;;;;;
2023/07/12 13:34:00;;;;;;;12.8;6.9;;;;;;;28.01;53.49;;;;;
2023/07/12 13:44:00;;;;;;;12.8;6.9;;;;;;;28.46;53.07;;;;;
2023/07/12 13:54:00;;;;;;;12.8;6.9;;;;;;;29.12;52.18;;;;;
2023/07/12 14:04:00;;;;;;;10.5;6.4;;;;;;;29.65;48.93;;;;;
2023/07/12 14:15:00;;;;;;;10.5;6.4;;;;;;;29.91;48.36;;;;;
2023/07/12 14:26:00;;;;;;;10.5;6.4;;;;;;;30.42;48.01;;;;;
2023/07/12 14:36:00;;;;;;;9.1;5;;;;;;;30.68;45.14;;;;;
2023/07/12 14:46:01;;;;;;;9.1;5;;;;;;;30.03;46.66;;;;;
2023/07/12 14:57:00;;;;;;;9.1;5;;;;;;;30.56;45.42;;;;;
2023/07/12 15:07:00;;;;;;;8.6;4.5;;;;;;;30.65;45.34;;;;;
2023/07/12 15:18:00;;;;;;;8.6;4.5;;;;;;;30.71;44.53;;;;;
2023/07/12 15:28:00;;;;;;;8.6;4.5;;;;;;;30.98;44.86;;;;;
2023/07/12 15:38:00;;;;;;;7.4;4.5;;;;;;;31.08;45.5;;;;;
2023/07/12 15:48:00;;;;;;;7.4;4.5;;;;;;;32.6;41.61;;;;;
2023/07/12 15:59:00;;;;;;;7.4;4.5;;;;;;;31.41;44.26;;;;;
2023/07/12 16:09:00;;;;;;;7.3;4.7;;;;;;;30.58;45.38;;;;;
2023/07/12 16:19:00;;;;;;;7.3;4.7;;;;;;;29.44;47.32;;;;;
2023/07/12 16:29:00;;;;;;;7.3;4.7;;;;;;;28.76;49.11;;;;;
2023/07/12 16:40:00;;;;;;;9;5.1;;;;;;;28.28;51.25;;;;;
2023/07/12 16:50:00;;;;;;;9;5.1;;;;;;;28.79;50.65;;;;;
2023/07/12 17:00:00;;;;;;;9;5.1;;;;;;;31.48;45.9;;;;;
2023/07/12 17:11:00;;;;;;;9.9;5;;;;;;;33.42;40.9;;;;;
2023/07/12 17:21:00;;;;;;;9.9;5;;;;;;;31.69;44.34;;;;;
2023/07/12 17:32:00;;;;;;;9.9;5;;;;;;;30.27;50.02;;;;;
2023/07/12 17:42:00;;;;;;;16.1;6.9;;;;;;;29.36;53.08;;;;;
2023/07/12 17:53:00;;;;;;;16.1;6.9;;;;;;;28.24;57.11;;;;;
2023/07/12 18:04:00;;;;;;;8.5;5.7;;;;;;;27.48;58.52;;;;;
2023/07/12 18:14:00;;;;;;;8.5;5.7;;;;;;;26.56;60.63;;;;;
2023/07/12 18:25:00;;;;;;;8.5;5.7;;;;;;;25.72;61.97;;;;;
2023/07/12 18:36:01;;;;;;;10.8;5.3;;;;;;;25.07;63.42;;;;;
2023/07/12 18:47:00;;;;;;;10.8;5.3;;;;;;;24.35;66.11;;;;;
2023/07/12 18:58:02;;;;;;;10.8;5.3;;;;;;;23.82;67.3;;;;;
2023/07/12 19:08:00;;;;;;;9.7;6.1;;;;;;;23.52;68.45;;;;;
2023/07/12 19:19:00;;;;;;;9.7;6.1;;;;;;;23.22;69.53;;;;;
2023/07/12 19:29:00;;;;;;;9.7;6.1;;;;;;;23.17;69.68;;;;;
2023/07/12 19:40:00;;;;;;;11.7;7.3;;;;;;;23.09;69.95;;;;;
2023/07/12 19:51:00;;;;;;;11.7;7.3;;;;;;;23.13;69.78;;;;;
2023/07/12 20:02:00;;;;;;;11.7;7.3;;;;;;;23.09;69.12;;;;;
2023/07/12 20:13:00;;;;;;;8.7;6.1;;;;;;;22.86;71.68;;;;;
2023/07/12 20:24:00;;;;;;;8.7;6.1;;;;;;;22.7;72.18;;;;;
2023/07/12 20:34:00;;;;;;;8.7;6.1;;;;;;;22.52;72.88;;;;;
2023/07/12 20:44:01;;;;;;;10.2;6.9;;;;;;;22.41;73.99;;;;;
2023/07/12 20:55:00;;;;;;;10.2;6.9;;;;;;;22.37;73.63;;;;;
2023/07/12 21:05:00;;;;;;;8.1;5.6;;;;;;;22.3;74.18;;;;;
2023/07/12 21:16:00;;;;;;;8.1;5.6;;;;;;;22.25;75.11;;;;;
2023/07/12 21:26:00;;;;;;;8.1;5.6;;;;;;;21.95;77.08;;;;;
2023/07/12 21:36:00;;;;;;;11.1;7.4;;;;;;;21.78;77.86;;;;;
2023/07/12 21:47:00;;;;;;;11.1;7.4;;;;;;;21.84;76.05;;;;;
2023/07/12 21:57:00;;;;;;;11.1;7.4;;;;;;;21.93;75.43;;;;;
2023/07/12 22:07:00;;;;;;;11.2;7.6;;;;;;;21.87;75.31;;;;;
2023/07/12 22:18:00;;;;;;;11.2;7.6;;;;;;;21.81;75.84;;;;;
2023/07/12 22:28:00;;;;;;;11.2;7.6;;;;;;;21.65;76.83;;;;;
2023/07/12 22:38:00;;;;;;;9.3;7.1;;;;;;;21.48;78.13;;;;;
2023/07/12 22:49:03;;;;;;;9.3;7.1;;;;;;;21.32;78.2;;;;;
2023/07/12 23:00:00;;;;;;;9.3;7.1;;;;;;;21.14;80.3;;;;;
2023/07/12 23:11:00;;;;;;;9.7;6.2;;;;;;;21.17;78.97;;;;;
2023/07/12 23:21:08;;;;;;;9.7;6.2;;;;;;;21.06;79.86;;;;;
2023/07/12 23:32:00;;;;;;;9.7;6.2;;;;;;;21.04;80;;;;;
2023/07/12 23:43:00;;;;;;;10.3;6.5;;;;;;;20.94;80.97;;;;;
2023/07/12 23:53:00;;;;;;;10.3;6.5;;;;;;;20.96;81.63;;;;;
